Time,TemperatureF,DewpointF,PressureIn,WindDirection,WindDirectionDegrees,WindSpeedMPH,WindSpeedGustMPH,Humidity,HourlyPrecipIn,Conditions,Clouds,dailyrainin,SolarRadiationWatts/m^2,SoftwareType,DateUTC
2013-05-06 00:04:00,40.5,38.9,30.25,South,186,0.0,0.0,94,0.00,,,0.00,0,Wunderground v.1.15,2013-05-06 04:04:00,
2013-05-06 00:09:00,40.3,38.7,30.25,South,186,0.0,0.0,94,0.00,,,0.00,0,Wunderground v.1.15,2013-05-06 04:09:00,
2013-05-06 00:14:00,40.1,38.5,30.25,South,186,0.0,0.0,94,0.00,,,0.00,0,Wunderground v.1.15,2013-05-06 04:14:00,
2013-05-06 00:19:00,39.9,38.3,30.25,South,186,0.0,0.0,94,0.00,,,0.00,0,Wunderground v.1.15,2013-05-06 04:19:00,
2013-05-06 00:24:00,39.9,38.3,30.25,South,186,0.0,0.0,94,0.00,,,0.00,0,Wunderground v.1.15,2013-05-06 04:24:00,
2013-05-06 00:29:00,39.8,38.2,30.25,South,186,0.0,0.0,94,0.00,,,0.00,0,Wunderground v.1.15,2013-05-06 04:29:00,
2013-05-06 00:34:00,39.6,38.0,30.25,South,186,0.0,0.0,94,0.00,,,0.00,0,Wunderground v.1.15,2013-05-06 04:34:00,
2013-05-06 00:39:00,39.4,37.8,30.25,South,186,0.0,0.0,94,0.00,,,0.00,0,Wunderground v.1.15,2013-05-06 04:39:00,
2013-05-06 00:44:00,39.4,38.1,30.25,South,186,0.0,0.0,95,0.00,,,0.00,0,Wunderground v.1.15,2013-05-06 04:44:00,
2013-05-06 00:49:00,39.3,38.0,30.25,South,186,0.0,0.0,95,0.00,,,0.00,0,Wunderground v.1.15,2013-05-06 04:49:00,
2013-05-06 00:54:00,39.1,37.8,30.25,South,186,0.0,0.0,95,0.00,,,0.00,0,Wunderground v.1.15,2013-05-06 04:54:00,
2013-05-06 00:59:00,39.0,37.7,30.24,South,186,0.0,0.0,95,0.00,,,0.00,0,Wunderground v.1.15,2013-05-06 04:59:00,
2013-05-06 01:09:00,39.1,38.1,30.24,South,186,0.0,0.0,96,0.00,,,0.00,0,Wunderground v.1.15,2013-05-06 05:09:00,
2013-05-06 01:14:00,39.1,38.1,30.24,South,186,0.0,0.0,96,0.00,,,0.00,0,Wunderground v.1.15,2013-05-06 05:14:00,
2013-05-06 01:19:00,39.1,38.1,30.24,South,186,0.0,0.0,96,0.00,,,0.00,0,Wunderground v.1.15,2013-05-06 05:19:00,
2013-05-06 01:29:00,39.3,38.3,30.24,South,186,0.0,0.0,96,0.00,,,0.00,0,Wunderground v.1.15,2013-05-06 05:29:00,
2013-05-06 01:39:00,39.5,38.5,30.24,South,186,0.0,0.0,96,0.00,,,0.00,0,Wunderground v.1.15,2013-05-06 05:39:00,
2013-05-06 01:49:00,39.7,38.7,30.23,South,186,0.0,0.0,96,0.00,,,0.00,0,Wunderground v.1.15,2013-05-06 05:49:00,
2013-05-06 01:54:00,39.8,38.8,30.23,South,186,0.0,0.0,96,0.00,,,0.00,0,Wunderground v.1.15,2013-05-06 05:54:00,
2013-05-06 01:59:00,39.8,38.8,30.23,South,186,0.0,0.0,96,0.00,,,0.00,0,Wunderground v.1.15,2013-05-06 05:59:00,
2013-05-06 02:09:00,39.7,38.7,30.23,South,186,0.0,0.0,96,0.00,,,0.00,0,Wunderground v.1.15,2013-05-06 06:09:00,
2013-05-06 02:14:00,39.6,38.6,30.23,South,186,0.0,0.0,96,0.00,,,0.00,0,Wunderground v.1.15,2013-05-06 06:14:00,
2013-05-06 02:19:00,39.5,38.5,30.23,South,186,0.0,0.0,96,0.00,,,0.00,0,Wunderground v.1.15,2013-05-06 06:19:00,
2013-05-06 02:29:00,39.4,38.4,30.23,South,186,0.0,0.0,96,0.00,,,0.00,0,Wunderground v.1.15,2013-05-06 06:29:00,
2013-05-06 02:34:00,39.4,38.4,30.23,South,186,0.0,0.0,96,0.00,,,0.00,0,Wunderground v.1.15,2013-05-06 06:34:00,
2013-05-06 02:39:00,39.4,38.4,30.23,South,186,0.0,0.0,96,0.00,,,0.00,0,Wunderground v.1.15,2013-05-06 06:39:00,
2013-05-06 02:44:00,39.3,38.3,30.22,South,186,0.0,0.0,96,0.00,,,0.00,0,Wunderground v.1.15,2013-05-06 06:44:00,
2013-05-06 02:49:00,39.3,38.3,30.23,South,186,0.0,0.0,96,0.00,,,0.00,0,Wunderground v.1.15,2013-05-06 06:49:00,
2013-05-06 02:59:00,39.3,38.5,30.22,South,186,0.0,0.0,97,0.00,,,0.00,0,Wunderground v.1.15,2013-05-06 06:59:00,
2013-05-06 03:04:00,39.3,38.5,30.22,South,186,0.0,0.0,97,0.00,,,0.00,0,Wunderground v.1.15,2013-05-06 07:04:00,
2013-05-06 03:09:00,39.3,38.5,30.22,South,186,0.0,0.0,97,0.00,,,0.00,0,Wunderground v.1.15,2013-05-06 07:09:00,
2013-05-06 03:14:00,39.3,38.5,30.22,South,186,0.0,0.0,97,0.00,,,0.00,0,Wunderground v.1.15,2013-05-06 07:14:00,
2013-05-06 03:24:00,39.2,38.2,30.22,South,186,0.0,0.0,96,0.00,,,0.00,0,Wunderground v.1.15,2013-05-06 07:24:00,
2013-05-06 03:34:00,38.9,37.9,30.22,South,186,0.0,0.0,96,0.00,,,0.00,0,Wunderground v.1.15,2013-05-06 07:34:00,
2013-05-06 03:44:00,38.8,38.0,30.22,South,186,0.0,0.0,97,0.00,,,0.00,0,Wunderground v.1.15,2013-05-06 07:44:00,
2013-05-06 03:49:00,38.8,38.0,30.22,South,186,0.0,0.0,97,0.00,,,0.00,0,Wunderground v.1.15,2013-05-06 07:49:00,
2013-05-06 03:54:00,38.9,38.1,30.22,South,186,0.0,0.0,97,0.00,,,0.00,0,Wunderground v.1.15,2013-05-06 07:54:00,
2013-05-06 04:04:00,39.0,38.2,30.22,South,186,0.0,0.0,97,0.00,,,0.00,0,Wunderground v.1.15,2013-05-06 08:04:00,
2013-05-06 04:09:00,39.0,38.2,30.22,South,186,0.0,0.0,97,0.00,,,0.00,0,Wunderground v.1.15,2013-05-06 08:09:00,
2013-05-06 04:19:00,39.1,38.3,30.22,South,188,0.0,0.0,97,0.00,,,0.00,0,Wunderground v.1.15,2013-05-06 08:19:00,
2013-05-06 04:24:00,39.1,38.3,30.22,South,188,0.0,0.0,97,0.00,,,0.00,0,Wunderground v.1.15,2013-05-06 08:24:00,
2013-05-06 04:34:00,39.1,38.3,30.22,South,188,0.0,0.0,97,0.00,,,0.00,0,Wunderground v.1.15,2013-05-06 08:34:00,
2013-05-06 04:39:00,39.0,38.2,30.22,South,188,0.0,0.0,97,0.00,,,0.00,0,Wunderground v.1.15,2013-05-06 08:39:00,
2013-05-06 04:44:00,38.9,38.1,30.22,South,188,0.0,0.0,97,0.00,,,0.00,0,Wunderground v.1.15,2013-05-06 08:44:00,
2013-05-06 04:49:00,38.8,38.0,30.23,South,188,0.0,0.0,97,0.00,,,0.00,0,Wunderground v.1.15,2013-05-06 08:49:00,
2013-05-06 04:54:00,38.7,37.9,30.23,South,188,0.0,1.0,97,0.00,,,0.00,0,Wunderground v.1.15,2013-05-06 08:54:00,
2013-05-06 04:59:00,38.6,37.8,30.23,South,188,0.0,1.0,97,0.00,,,0.00,0,Wunderground v.1.15,2013-05-06 08:59:00,
2013-05-06 05:04:00,38.6,37.8,30.23,South,188,0.0,0.0,97,0.00,,,0.00,0,Wunderground v.1.15,2013-05-06 09:04:00,
2013-05-06 05:09:00,38.5,37.7,30.23,South,188,0.0,0.0,97,0.00,,,0.00,0,Wunderground v.1.15,2013-05-06 09:09:00,
2013-05-06 05:19:00,38.4,37.6,30.23,South,188,0.0,0.0,97,0.00,,,0.00,0,Wunderground v.1.15,2013-05-06 09:19:00,
2013-05-06 05:24:00,38.2,37.4,30.23,South,188,0.0,0.0,97,0.00,,,0.00,0,Wunderground v.1.15,2013-05-06 09:24:00,
2013-05-06 05:29:00,38.0,37.2,30.23,NW,305,0.0,2.0,97,0.00,,,0.00,0,Wunderground v.1.15,2013-05-06 09:29:00,
2013-05-06 05:39:00,37.6,36.8,30.23,NW,306,1.0,2.0,97,0.00,,,0.00,0,Wunderground v.1.15,2013-05-06 09:39:00,
2013-05-06 05:44:00,37.3,36.5,30.24,NW,307,1.0,3.0,97,0.00,,,0.00,5,Wunderground v.1.15,2013-05-06 09:44:00,
2013-05-06 05:54:00,36.8,36.0,30.24,NW,307,1.0,2.0,97,0.00,,,0.00,9,Wunderground v.1.15,2013-05-06 09:54:00,
2013-05-06 05:59:00,36.5,35.7,30.25,NW,307,1.0,2.0,97,0.00,,,0.00,11,Wunderground v.1.15,2013-05-06 09:59:00,
2013-05-06 06:04:00,36.3,35.3,30.25,NW,307,1.0,1.0,96,0.00,,,0.00,14,Wunderground v.1.15,2013-05-06 10:04:00,
2013-05-06 06:09:00,36.2,35.4,30.25,NW,307,0.0,1.0,97,0.00,,,0.00,21,Wunderground v.1.15,2013-05-06 10:09:00,
2013-05-06 06:14:00,36.0,35.2,30.24,NW,307,0.0,0.0,97,0.00,,,0.00,28,Wunderground v.1.15,2013-05-06 10:14:00,
2013-05-06 06:24:00,35.8,35.0,30.25,NW,307,0.0,0.0,97,0.00,,,0.00,40,Wunderground v.1.15,2013-05-06 10:24:00,
2013-05-06 06:29:00,35.8,35.0,30.25,NW,307,0.0,0.0,97,0.00,,,0.00,49,Wunderground v.1.15,2013-05-06 10:29:00,
2013-05-06 06:34:00,35.9,35.1,30.25,NW,307,0.0,0.0,97,0.00,,,0.00,51,Wunderground v.1.15,2013-05-06 10:34:00,
2013-05-06 06:39:00,36.0,35.2,30.25,NW,307,0.0,0.0,97,0.00,,,0.00,58,Wunderground v.1.15,2013-05-06 10:39:00,
2013-05-06 06:49:00,36.1,35.3,30.26,NW,307,1.0,1.0,97,0.00,,,0.00,62,Wunderground v.1.15,2013-05-06 10:49:00,
2013-05-06 06:54:00,36.3,35.5,30.26,NW,307,0.0,0.0,97,0.00,,,0.00,70,Wunderground v.1.15,2013-05-06 10:54:00,
2013-05-06 06:59:00,36.6,36.1,30.26,NW,307,0.0,0.0,98,0.00,,,0.00,84,Wunderground v.1.15,2013-05-06 10:59:00,
2013-05-06 07:09:00,37.0,36.5,30.26,NW,307,1.0,1.0,98,0.00,,,0.00,79,Wunderground v.1.15,2013-05-06 11:09:00,
2013-05-06 07:14:00,37.2,36.7,30.26,NW,307,1.0,1.0,98,0.00,,,0.00,95,Wunderground v.1.15,2013-05-06 11:14:00,
2013-05-06 07:19:00,37.5,37.0,30.27,NW,307,1.0,1.0,98,0.00,,,0.00,86,Wunderground v.1.15,2013-05-06 11:19:00,
2013-05-06 07:24:00,37.8,37.3,30.27,NW,307,0.0,0.0,98,0.00,,,0.00,97,Wunderground v.1.15,2013-05-06 11:24:00,
2013-05-06 07:29:00,38.2,37.7,30.27,NW,307,1.0,1.0,98,0.00,,,0.00,120,Wunderground v.1.15,2013-05-06 11:29:00,
2013-05-06 07:34:00,38.6,38.1,30.27,NW,306,1.0,1.0,98,0.00,,,0.00,105,Wunderground v.1.15,2013-05-06 11:34:00,
2013-05-06 07:44:00,38.7,38.2,30.27,WNW,302,1.0,1.0,98,0.00,,,0.00,123,Wunderground v.1.15,2013-05-06 11:44:00,
2013-05-06 07:49:00,38.8,38.3,30.27,WNW,302,1.0,1.0,98,0.00,,,0.00,125,Wunderground v.1.15,2013-05-06 11:49:00,
2013-05-06 07:59:00,39.0,38.5,30.28,WNW,302,1.0,1.0,98,0.00,,,0.00,146,Wunderground v.1.15,2013-05-06 11:59:00,
2013-05-06 08:04:00,39.2,38.7,30.28,WNW,302,1.0,1.0,98,0.00,,,0.00,183,Wunderground v.1.15,2013-05-06 12:04:00,
2013-05-06 08:09:00,39.5,39.0,30.28,WNW,302,1.0,1.0,98,0.00,,,0.00,169,Wunderground v.1.15,2013-05-06 12:09:00,
2013-05-06 08:14:00,39.6,39.1,30.27,WNW,302,1.0,1.0,98,0.00,,,0.00,186,Wunderground v.1.15,2013-05-06 12:14:00,
2013-05-06 08:24:00,40.0,39.5,30.28,WNW,300,0.0,0.0,98,0.00,,,0.00,211,Wunderground v.1.15,2013-05-06 12:24:00,
2013-05-06 08:34:00,40.4,39.9,30.27,NW,317,1.0,2.0,98,0.00,,,0.00,239,Wunderground v.1.15,2013-05-06 12:34:00,
2013-05-06 08:39:00,40.8,40.3,30.27,NW,317,2.0,2.0,98,0.00,,,0.00,304,Wunderground v.1.15,2013-05-06 12:39:00,
2013-05-06 08:49:00,43.6,43.3,30.28,NNW,327,1.0,1.0,99,0.00,,,0.00,369,Wunderground v.1.15,2013-05-06 12:49:00,
2013-05-06 08:59:00,44.0,43.7,30.28,NNW,340,1.0,1.0,99,0.00,,,0.00,260,Wunderground v.1.15,2013-05-06 12:59:00,
2013-05-06 09:09:00,44.3,43.8,30.28,NNW,338,2.0,3.0,98,0.00,,,0.00,371,Wunderground v.1.15,2013-05-06 13:09:00,
2013-05-06 09:14:00,45.5,45.0,30.28,NNW,338,1.0,1.0,98,0.00,,,0.00,599,Wunderground v.1.15,2013-05-06 13:14:00,
2013-05-06 09:19:00,46.0,44.9,30.28,NNW,338,1.0,1.0,96,0.00,,,0.00,636,Wunderground v.1.15,2013-05-06 13:19:00,
2013-05-06 09:24:00,47.5,45.0,30.28,East,84,1.0,1.0,91,0.00,,,0.00,675,Wunderground v.1.15,2013-05-06 13:24:00,
2013-05-06 09:29:00,48.6,46.1,30.28,South,184,1.0,1.0,91,0.00,,,0.00,649,Wunderground v.1.15,2013-05-06 13:29:00,
2013-05-06 09:39:00,51.9,46.9,30.27,North,355,2.0,5.0,83,0.00,,,0.00,735,Wunderground v.1.15,2013-05-06 13:39:00,
2013-05-06 09:44:00,51.9,46.3,30.28,NNE,30,3.0,3.0,81,0.00,,,0.00,731,Wunderground v.1.15,2013-05-06 13:44:00,
2013-05-06 09:49:00,52.8,46.5,30.27,NE,54,3.0,3.0,79,0.00,,,0.00,615,Wunderground v.1.15,2013-05-06 13:49:00,
2013-05-06 09:54:00,52.2,46.2,30.27,SSW,211,3.0,4.0,80,0.00,,,0.00,531,Wunderground v.1.15,2013-05-06 13:54:00,
2013-05-06 09:59:00,53.2,47.2,30.27,SSE,168,3.0,4.0,80,0.00,,,0.00,877,Wunderground v.1.15,2013-05-06 13:59:00,
2013-05-06 10:04:00,53.3,47.0,30.27,SE,144,3.0,3.0,79,0.00,,,0.00,501,Wunderground v.1.15,2013-05-06 14:04:00,
2013-05-06 10:09:00,53.8,47.1,30.27,SE,138,3.0,3.0,78,0.00,,,0.00,708,Wunderground v.1.15,2013-05-06 14:09:00,
2013-05-06 10:19:00,54.9,48.5,30.27,SSW,193,2.0,4.0,79,0.00,,,0.00,870,Wunderground v.1.15,2013-05-06 14:19:00,
2013-05-06 10:24:00,55.5,48.4,30.27,SSE,148,2.0,3.0,77,0.00,,,0.00,791,Wunderground v.1.15,2013-05-06 14:24:00,
2013-05-06 10:34:00,56.7,48.5,30.27,SE,131,3.0,6.0,74,0.00,,,0.00,826,Wunderground v.1.15,2013-05-06 14:34:00,
2013-05-06 10:39:00,55.6,47.1,30.27,SSE,155,4.0,6.0,73,0.00,,,0.00,867,Wunderground v.1.15,2013-05-06 14:39:00,
2013-05-06 10:44:00,56.4,48.9,30.27,South,191,4.0,4.0,76,0.00,,,0.00,810,Wunderground v.1.15,2013-05-06 14:44:00,
2013-05-06 10:49:00,56.3,47.8,30.27,SSE,158,4.0,4.0,73,0.00,,,0.00,817,Wunderground v.1.15,2013-05-06 14:49:00,
2013-05-06 10:54:00,55.7,46.8,30.27,SE,141,4.0,7.0,72,0.00,,,0.00,826,Wunderground v.1.15,2013-05-06 14:54:00,
2013-05-06 11:04:00,57.2,47.9,30.26,SSW,206,3.0,3.0,71,0.00,,,0.00,844,Wunderground v.1.15,2013-05-06 15:04:00,
2013-05-06 11:09:00,57.1,47.4,30.27,South,182,3.0,5.0,70,0.00,,,0.00,853,Wunderground v.1.15,2013-05-06 15:09:00,
2013-05-06 11:14:00,57.5,48.2,30.26,South,169,4.0,5.0,71,0.00,,,0.00,858,Wunderground v.1.15,2013-05-06 15:14:00,
2013-05-06 11:24:00,57.8,48.1,30.26,ESE,120,4.0,4.0,70,0.00,,,0.00,870,Wunderground v.1.15,2013-05-06 15:24:00,
2013-05-06 11:29:00,58.4,47.9,30.26,SW,221,3.0,4.0,68,0.00,,,0.00,879,Wunderground v.1.15,2013-05-06 15:29:00,
2013-05-06 11:34:00,58.2,46.9,30.26,East,96,2.0,2.0,66,0.00,,,0.00,888,Wunderground v.1.15,2013-05-06 15:34:00,
2013-05-06 11:44:00,58.9,48.0,30.25,South,177,2.0,4.0,67,0.00,,,0.00,896,Wunderground v.1.15,2013-05-06 15:44:00,
2013-05-06 11:49:00,59.9,48.1,30.25,SE,135,3.0,4.0,65,0.00,,,0.00,900,Wunderground v.1.15,2013-05-06 15:49:00,
2013-05-06 11:54:00,60.3,49.7,30.25,SSE,161,3.0,3.0,68,0.00,,,0.00,909,Wunderground v.1.15,2013-05-06 15:54:00,
2013-05-06 11:59:00,60.9,48.2,30.25,East,86,3.0,7.0,63,0.00,,,0.00,912,Wunderground v.1.15,2013-05-06 15:59:00,
2013-05-06 12:04:00,60.7,47.6,30.25,South,191,4.0,6.0,62,0.00,,,0.00,916,Wunderground v.1.15,2013-05-06 16:04:00,
2013-05-06 12:09:00,60.3,46.8,30.25,SSE,155,5.0,6.0,61,0.00,,,0.00,919,Wunderground v.1.15,2013-05-06 16:09:00,
2013-05-06 12:19:00,61.1,47.5,30.24,South,169,4.0,5.0,61,0.00,,,0.00,926,Wunderground v.1.15,2013-05-06 16:19:00,
2013-05-06 12:24:00,61.3,48.6,30.24,SSE,161,4.0,4.0,63,0.00,,,0.00,933,Wunderground v.1.15,2013-05-06 16:24:00,
2013-05-06 12:29:00,61.5,47.5,30.24,ESE,117,4.0,4.0,60,0.00,,,0.00,933,Wunderground v.1.15,2013-05-06 16:29:00,
2013-05-06 12:34:00,62.3,48.2,30.24,ESE,114,4.0,4.0,60,0.00,,,0.00,935,Wunderground v.1.15,2013-05-06 16:34:00,
2013-05-06 12:39:00,62.8,48.3,30.24,SSE,150,4.0,4.0,59,0.00,,,0.00,935,Wunderground v.1.15,2013-05-06 16:39:00,
2013-05-06 12:44:00,62.4,48.3,30.23,ESE,118,3.0,3.0,60,0.00,,,0.00,933,Wunderground v.1.15,2013-05-06 16:44:00,
2013-05-06 12:49:00,62.5,48.0,30.23,SSE,161,4.0,4.0,59,0.00,,,0.00,937,Wunderground v.1.15,2013-05-06 16:49:00,
2013-05-06 12:54:00,62.8,47.8,30.23,SE,146,4.0,4.0,58,0.00,,,0.00,935,Wunderground v.1.15,2013-05-06 16:54:00,
2013-05-06 12:59:00,62.8,46.4,30.22,NE,34,3.0,4.0,55,0.00,,,0.00,939,Wunderground v.1.15,2013-05-06 16:59:00,
2013-05-06 13:09:00,63.7,47.7,30.22,SSW,199,3.0,3.0,56,0.00,,,0.00,937,Wunderground v.1.15,2013-05-06 17:09:00,
2013-05-06 13:19:00,65.2,50.0,30.22,SSE,159,4.0,4.0,58,0.00,,,0.00,928,Wunderground v.1.15,2013-05-06 17:19:00,
2013-05-06 13:24:00,66.3,48.7,30.22,South,174,4.0,7.0,53,0.00,,,0.00,940,Wunderground v.1.15,2013-05-06 17:24:00,
2013-05-06 13:29:00,65.9,46.7,30.21,SE,137,4.0,7.0,50,0.00,,,0.00,930,Wunderground v.1.15,2013-05-06 17:29:00,
2013-05-06 13:39:00,66.1,48.5,30.21,SE,126,3.0,3.0,53,0.00,,,0.00,923,Wunderground v.1.15,2013-05-06 17:39:00,
2013-05-06 13:44:00,66.7,48.0,30.21,SW,232,4.0,4.0,51,0.00,,,0.00,921,Wunderground v.1.15,2013-05-06 17:44:00,
2013-05-06 13:54:00,66.5,47.3,30.21,South,175,4.0,4.0,50,0.00,,,0.00,912,Wunderground v.1.15,2013-05-06 17:54:00,
2013-05-06 13:59:00,66.5,45.6,30.21,South,175,3.0,4.0,47,0.00,,,0.00,909,Wunderground v.1.15,2013-05-06 17:59:00,
2013-05-06 14:09:00,67.3,49.1,30.20,SW,215,2.0,2.0,52,0.00,,,0.00,895,Wunderground v.1.15,2013-05-06 18:09:00,
2013-05-06 14:14:00,67.3,45.2,30.20,SW,217,2.0,2.0,45,0.00,,,0.00,893,Wunderground v.1.15,2013-05-06 18:14:00,
2013-05-06 14:19:00,67.8,46.8,30.20,South,179,3.0,6.0,47,0.00,,,0.00,891,Wunderground v.1.15,2013-05-06 18:19:00,
2013-05-06 14:24:00,66.8,44.8,30.19,North,360,3.0,3.0,45,0.00,,,0.00,879,Wunderground v.1.15,2013-05-06 18:24:00,
2013-05-06 14:34:00,66.8,46.5,30.19,South,169,2.0,2.0,48,0.00,,,0.00,863,Wunderground v.1.15,2013-05-06 18:34:00,
2013-05-06 14:39:00,67.9,46.3,30.19,South,176,2.0,5.0,46,0.00,,,0.00,856,Wunderground v.1.15,2013-05-06 18:39:00,
2013-05-06 14:44:00,67.2,44.5,30.19,SSE,160,3.0,3.0,44,0.00,,,0.00,847,Wunderground v.1.15,2013-05-06 18:44:00,
2013-05-06 14:49:00,68.6,47.0,30.19,SSE,157,2.0,3.0,46,0.00,,,0.00,838,Wunderground v.1.15,2013-05-06 18:49:00,
2013-05-06 14:59:00,68.6,45.8,30.18,WNW,283,4.0,5.0,44,0.00,,,0.00,821,Wunderground v.1.15,2013-05-06 18:59:00,
2013-05-06 15:09:00,68.3,44.9,30.18,WNW,293,2.0,3.0,43,0.00,,,0.00,800,Wunderground v.1.15,2013-05-06 19:09:00,
2013-05-06 15:14:00,69.0,47.9,30.18,SE,126,2.0,2.0,47,0.00,,,0.00,786,Wunderground v.1.15,2013-05-06 19:14:00,
2013-05-06 15:24:00,68.6,45.2,30.17,SE,130,2.0,4.0,43,0.00,,,0.00,761,Wunderground v.1.15,2013-05-06 19:24:00,
2013-05-06 15:29:00,68.9,46.1,30.17,East,80,2.0,4.0,44,0.00,,,0.00,754,Wunderground v.1.15,2013-05-06 19:29:00,
2013-05-06 15:39:00,68.9,46.1,30.17,SE,143,2.0,3.0,44,0.00,,,0.00,737,Wunderground v.1.15,2013-05-06 19:39:00,
2013-05-06 15:44:00,68.6,44.6,30.17,SSW,198,3.0,3.0,42,0.00,,,0.00,724,Wunderground v.1.15,2013-05-06 19:44:00,
2013-05-06 15:49:00,69.9,46.4,30.17,WSW,244,3.0,4.0,43,0.00,,,0.00,710,Wunderground v.1.15,2013-05-06 19:49:00,
2013-05-06 15:54:00,69.1,43.8,30.16,SSW,196,2.0,3.0,40,0.00,,,0.00,691,Wunderground v.1.15,2013-05-06 19:54:00,
2013-05-06 16:04:00,69.4,47.1,30.16,SE,134,2.0,2.0,45,0.00,,,0.00,666,Wunderground v.1.15,2013-05-06 20:04:00,
2013-05-06 16:09:00,69.7,47.4,30.16,East,96,3.0,3.0,45,0.00,,,0.00,654,Wunderground v.1.15,2013-05-06 20:09:00,
2013-05-06 16:14:00,69.1,46.3,30.16,SE,136,3.0,3.0,44,0.00,,,0.00,636,Wunderground v.1.15,2013-05-06 20:14:00,
2013-05-06 16:19:00,68.6,46.4,30.16,WNW,284,2.0,3.0,45,0.00,,,0.00,622,Wunderground v.1.15,2013-05-06 20:19:00,
2013-05-06 16:29:00,69.3,45.8,30.16,South,173,2.0,3.0,43,0.00,,,0.00,587,Wunderground v.1.15,2013-05-06 20:29:00,
2013-05-06 16:34:00,68.2,46.0,30.15,SSW,200,2.0,2.0,45,0.00,,,0.00,578,Wunderground v.1.15,2013-05-06 20:34:00,
2013-05-06 16:44:00,68.5,45.1,30.15,SW,221,3.0,3.0,43,0.00,,,0.00,287,Wunderground v.1.15,2013-05-06 20:44:00,
2013-05-06 16:49:00,68.0,45.3,30.15,SSW,209,2.0,3.0,44,0.00,,,0.00,97,Wunderground v.1.15,2013-05-06 20:49:00,
2013-05-06 16:59:00,67.3,46.4,30.15,South,175,1.0,1.0,47,0.00,,,0.00,79,Wunderground v.1.15,2013-05-06 20:59:00,
2013-05-06 17:09:00,67.4,47.0,30.15,SE,145,2.0,3.0,48,0.00,,,0.00,232,Wunderground v.1.15,2013-05-06 21:09:00,
2013-05-06 17:19:00,67.5,47.1,30.15,SE,143,3.0,3.0,48,0.00,,,0.00,58,Wunderground v.1.15,2013-05-06 21:19:00,
2013-05-06 17:24:00,67.0,46.1,30.15,South,175,2.0,2.0,47,0.00,,,0.00,102,Wunderground v.1.15,2013-05-06 21:24:00,
2013-05-06 17:34:00,66.5,48.3,30.15,SSE,153,1.0,3.0,52,0.00,,,0.00,62,Wunderground v.1.15,2013-05-06 21:34:00,
2013-05-06 17:44:00,65.7,50.5,30.14,SSE,151,3.0,3.0,58,0.00,,,0.00,53,Wunderground v.1.15,2013-05-06 21:44:00,
2013-05-06 17:49:00,65.4,50.7,30.15,SSE,153,4.0,4.0,59,0.00,,,0.00,54,Wunderground v.1.15,2013-05-06 21:49:00,
2013-05-06 17:54:00,65.2,51.0,30.15,SSE,154,4.0,4.0,60,0.00,,,0.00,44,Wunderground v.1.15,2013-05-06 21:54:00,
2013-05-06 17:59:00,64.7,50.9,30.14,South,175,4.0,4.0,61,0.00,,,0.00,40,Wunderground v.1.15,2013-05-06 21:59:00,
2013-05-06 18:09:00,64.0,50.7,30.14,SSW,206,3.0,4.0,62,0.00,,,0.00,56,Wunderground v.1.15,2013-05-06 22:09:00,
2013-05-06 18:14:00,63.9,50.6,30.14,South,186,3.0,3.0,62,0.00,,,0.00,33,Wunderground v.1.15,2013-05-06 22:14:00,
2013-05-06 18:19:00,63.6,50.8,30.14,South,184,3.0,3.0,63,0.00,,,0.00,33,Wunderground v.1.15,2013-05-06 22:19:00,
2013-05-06 18:24:00,63.4,51.0,30.14,SSW,205,2.0,2.0,64,0.00,,,0.00,35,Wunderground v.1.15,2013-05-06 22:24:00,
2013-05-06 18:29:00,63.3,50.9,30.14,South,179,3.0,4.0,64,0.00,,,0.00,32,Wunderground v.1.15,2013-05-06 22:29:00,
2013-05-06 18:39:00,62.5,51.0,30.15,SSW,198,2.0,3.0,66,0.00,,,0.00,28,Wunderground v.1.15,2013-05-06 22:39:00,
2013-05-06 18:44:00,62.1,51.0,30.15,SE,128,2.0,6.0,67,0.00,,,0.00,28,Wunderground v.1.15,2013-05-06 22:44:00,
2013-05-06 18:49:00,61.8,50.7,30.15,SE,126,2.0,6.0,67,0.00,,,0.00,26,Wunderground v.1.15,2013-05-06 22:49:00,
2013-05-06 18:59:00,61.1,50.5,30.15,South,183,2.0,2.0,68,0.00,,,0.00,25,Wunderground v.1.15,2013-05-06 22:59:00,
2013-05-06 19:04:00,60.8,50.6,30.15,SE,134,2.0,2.0,69,0.00,,,0.00,23,Wunderground v.1.15,2013-05-06 23:04:00,
2013-05-06 19:14:00,60.1,50.3,30.15,South,177,2.0,3.0,70,0.00,,,0.00,21,Wunderground v.1.15,2013-05-06 23:14:00,
2013-05-06 19:19:00,60.0,50.6,30.15,SE,129,3.0,3.0,71,0.00,,,0.00,19,Wunderground v.1.15,2013-05-06 23:19:00,
2013-05-06 19:29:00,59.4,50.4,30.16,South,184,2.0,4.0,72,0.00,,,0.00,16,Wunderground v.1.15,2013-05-06 23:29:00,
2013-05-06 19:34:00,59.1,50.1,30.16,South,177,3.0,5.0,72,0.00,,,0.00,14,Wunderground v.1.15,2013-05-06 23:34:00,
2013-05-06 19:39:00,59.0,50.0,30.16,South,177,4.0,6.0,72,0.00,,,0.00,12,Wunderground v.1.15,2013-05-06 23:39:00,
2013-05-06 19:44:00,58.5,49.9,30.16,SE,136,3.0,4.0,73,0.00,,,0.00,9,Wunderground v.1.15,2013-05-06 23:44:00,
2013-05-06 19:49:00,58.1,49.5,30.16,South,184,2.0,4.0,73,0.00,,,0.00,7,Wunderground v.1.15,2013-05-06 23:49:00,
2013-05-06 19:54:00,57.3,49.1,30.16,South,184,1.0,1.0,74,0.00,,,0.00,5,Wunderground v.1.15,2013-05-06 23:54:00,
2013-05-06 19:59:00,56.8,49.0,30.16,SW,222,1.0,3.0,75,0.00,,,0.00,0,Wunderground v.1.15,2013-05-06 23:59:00,
2013-05-06 20:04:00,56.4,48.9,30.17,SW,216,1.0,1.0,76,0.00,,,0.00,0,Wunderground v.1.15,2013-05-07 00:04:00,
2013-05-06 20:09:00,55.8,48.7,30.17,SW,216,1.0,1.0,77,0.00,,,0.00,0,Wunderground v.1.15,2013-05-07 00:09:00,
2013-05-06 20:19:00,55.0,48.6,30.17,South,186,0.0,6.0,79,0.00,,,0.00,0,Wunderground v.1.15,2013-05-07 00:19:00,
2013-05-06 20:24:00,54.8,48.4,30.17,South,186,1.0,1.0,79,0.00,,,0.00,0,Wunderground v.1.15,2013-05-07 00:24:00,
2013-05-06 20:29:00,54.5,48.5,30.17,SSW,204,0.0,1.0,80,0.00,,,0.00,0,Wunderground v.1.15,2013-05-07 00:29:00,
2013-05-06 20:34:00,54.2,48.2,30.17,West,275,0.0,0.0,80,0.00,,,0.00,0,Wunderground v.1.15,2013-05-07 00:34:00,
2013-05-06 20:39:00,53.9,48.2,30.17,SW,226,0.0,0.0,81,0.00,,,0.00,0,Wunderground v.1.15,2013-05-07 00:39:00,
2013-05-06 20:49:00,53.7,48.3,30.17,SSW,208,0.0,2.0,82,0.00,,,0.00,0,Wunderground v.1.15,2013-05-07 00:49:00,
2013-05-06 20:54:00,53.6,48.2,30.18,South,189,1.0,3.0,82,0.00,,,0.00,0,Wunderground v.1.15,2013-05-07 00:54:00,
2013-05-06 21:04:00,53.2,48.5,30.18,SSW,192,1.0,1.0,84,0.00,,,0.00,0,Wunderground v.1.15,2013-05-07 01:04:00,
2013-05-06 21:09:00,53.0,48.3,30.18,SSW,194,0.0,1.0,84,0.00,,,0.00,0,Wunderground v.1.15,2013-05-07 01:09:00,
2013-05-06 21:19:00,52.6,48.2,30.18,SW,219,0.0,0.0,85,0.00,,,0.00,0,Wunderground v.1.15,2013-05-07 01:19:00,
2013-05-06 21:24:00,52.4,48.3,30.18,SW,219,0.0,0.0,86,0.00,,,0.00,0,Wunderground v.1.15,2013-05-07 01:24:00,
2013-05-06 21:29:00,52.1,48.0,30.18,SW,216,0.0,0.0,86,0.00,,,0.00,0,Wunderground v.1.15,2013-05-07 01:29:00,
2013-05-06 21:34:00,51.9,48.2,30.18,SW,216,0.0,0.0,87,0.00,,,0.00,0,Wunderground v.1.15,2013-05-07 01:34:00,
2013-05-06 21:39:00,51.8,48.1,30.19,SW,216,0.0,0.0,87,0.00,,,0.00,0,Wunderground v.1.15,2013-05-07 01:39:00,
2013-05-06 21:49:00,51.3,47.9,30.19,SW,216,0.0,0.0,88,0.00,,,0.00,0,Wunderground v.1.15,2013-05-07 01:49:00,
2013-05-06 21:54:00,51.1,48.0,30.19,SW,216,0.0,0.0,89,0.00,,,0.00,0,Wunderground v.1.15,2013-05-07 01:54:00,
2013-05-06 21:59:00,51.0,47.9,30.19,SW,216,0.0,0.0,89,0.00,,,0.00,0,Wunderground v.1.15,2013-05-07 01:59:00,
2013-05-06 22:09:00,50.8,47.7,30.19,SW,216,0.0,0.0,89,0.00,,,0.00,0,Wunderground v.1.15,2013-05-07 02:09:00,
2013-05-06 22:14:00,50.4,47.3,30.19,SW,216,0.0,0.0,89,0.00,,,0.00,0,Wunderground v.1.15,2013-05-07 02:14:00,
2013-05-06 22:19:00,50.2,47.4,30.19,SW,216,0.0,0.0,90,0.00,,,0.00,0,Wunderground v.1.15,2013-05-07 02:19:00,
2013-05-06 22:24:00,49.9,47.1,30.19,SW,216,0.0,0.0,90,0.00,,,0.00,0,Wunderground v.1.15,2013-05-07 02:24:00,
2013-05-06 22:29:00,49.8,47.3,30.19,SW,224,0.0,1.0,91,0.00,,,0.00,0,Wunderground v.1.15,2013-05-07 02:29:00,
2013-05-06 22:34:00,49.6,47.1,30.19,SW,224,0.0,0.0,91,0.00,,,0.00,0,Wunderground v.1.15,2013-05-07 02:34:00,
2013-05-06 22:39:00,49.4,46.9,30.19,SW,226,0.0,0.0,91,0.00,,,0.00,0,Wunderground v.1.15,2013-05-07 02:39:00,
2013-05-06 22:44:00,49.2,46.7,30.18,SW,228,0.0,0.0,91,0.00,,,0.00,0,Wunderground v.1.15,2013-05-07 02:44:00,
2013-05-06 22:49:00,49.3,46.8,30.18,SW,236,0.0,0.0,91,0.00,,,0.00,0,Wunderground v.1.15,2013-05-07 02:49:00,
2013-05-06 22:54:00,49.1,46.6,30.18,NNW,340,0.0,0.0,91,0.00,,,0.00,0,Wunderground v.1.15,2013-05-07 02:54:00,
2013-05-06 22:59:00,49.1,46.6,30.18,NNW,340,0.0,0.0,91,0.00,,,0.00,0,Wunderground v.1.15,2013-05-07 02:59:00,
2013-05-06 23:04:00,48.9,46.4,30.18,NNW,340,0.0,0.0,91,0.00,,,0.00,0,Wunderground v.1.15,2013-05-07 03:04:00,
2013-05-06 23:09:00,48.8,46.6,30.18,NNW,340,0.0,1.0,92,0.00,,,0.00,0,Wunderground v.1.15,2013-05-07 03:09:00,
2013-05-06 23:14:00,48.9,46.7,30.18,WNW,289,0.0,1.0,92,0.00,,,0.00,0,Wunderground v.1.15,2013-05-07 03:14:00,
2013-05-06 23:24:00,48.8,46.6,30.18,WNW,289,0.0,0.0,92,0.00,,,0.00,0,Wunderground v.1.15,2013-05-07 03:24:00,
2013-05-06 23:34:00,48.3,46.1,30.18,WNW,289,0.0,0.0,92,0.00,,,0.00,0,Wunderground v.1.15,2013-05-07 03:34:00,
2013-05-06 23:39:00,48.2,46.0,30.18,WNW,289,0.0,0.0,92,0.00,,,0.00,0,Wunderground v.1.15,2013-05-07 03:39:00,
2013-05-06 23:49:00,48.4,46.5,30.18,NNW,337,0.0,2.0,93,0.00,,,0.00,0,Wunderground v.1.15,2013-05-07 03:49:00,
2013-05-06 23:54:00,48.1,45.9,30.17,NNW,337,0.0,0.0,92,0.00,,,0.00,0,Wunderground v.1.15,2013-05-07 03:54:00,
2013-05-06 23:59:00,48.1,46.2,30.18,NNW,337,0.0,0.0,93,0.00,,,0.00,0,Wunderground v.1.15,2013-05-07 03:59:00,